Buoy 13519

sailwx.info

Track history (hours):
 
Tides and Currents Weather Stations Pressure Air Temp Water Temp Dewpoint Dewpoint Depression Visibility Wind Speed Wind Dir Waves Ship Positions

Drifting buoy 13519

Last reported at 2016-Sep-28 10:00 UTC. Time now 2016-Sep-28 12:01 UTC.
Position N 27°57' W 070°54'.

Barometer 1017.0 mb
Water temperature 29.7 ° C

Date/timePositionNaut miles runAvg speedWind from/ knotsBaromVisibWave heightAir tempDewpointWater temp
2016-Sep-28 10:00N 27°57' W 070°54'1 0.9 1017.0 29.7
2016-Sep-28 09:00N 27°56' W 070°53'0 0.4 1016.7 29.8
2016-Sep-28 08:00N 27°56' W 070°53'0 0.1 1015.9 29.7
2016-Sep-28 03:00N 27°56' W 070°53'0 0.4 1017.4 29.8
2016-Sep-28 02:00N 27°56' W 070°53'0 0.3 1017.4 29.8
2016-Sep-28 01:00N 27°56' W 070°53'2 0.3 1017.1 -0.1
2016-Sep-27 20:00N 27°54' W 070°53'6 0.4 1013.9 29.8
2016-Sep-27 02:00N 27°50' W 070°48'1 1.1 1016.4 29.9
2016-Sep-27 01:00N 27°50' W 070°47'1 0.2 1016.0 29.9
2016-Sep-26 22:00N 27°50' W 070°46'1 0.7 1014.8 30.0
2016-Sep-26 21:00N 27°49' W 070°46'0 0.0 1014.4 30.1
2016-Sep-26 20:00N 27°49' W 070°46'4 0.2 1014.4 30.1
2016-Sep-25 20:00N 27°51' W 070°42'0 0.1 1014.5 30.5
2016-Sep-25 19:00N 27°51' W 070°42'1 0.2 1014.6 30.7
2016-Sep-25 13:00N 27°51' W 070°40'1 0.3 1016.4 29.9
2016-Sep-25 09:00N 27°52' W 070°40'1 0.1 1014.7 29.9
2016-Sep-25 00:00N 27°53' W 070°39'0 0.1 1016.0 34.1
2016-Sep-24 22:00N 27°53' W 070°39'4 0.4 1015.3 34.1
2016-Sep-24 13:00N 27°55' W 070°36'1 0.3 1016.2 29.9
2016-Sep-24 09:00N 27°56' W 070°37'1 0.5 1014.7 29.9
2016-Sep-24 07:00N 27°57' W 070°36'0 0.1 1014.6 29.9
2016-Sep-24 01:00N 27°57' W 070°36'1 0.6 1014.5 29.9
2016-Sep-24 00:00N 27°57' W 070°36'1 0.9 1014.2 29.9
2016-Sep-23 23:00N 27°57' W 070°35'1 1.2 1013.9 30.0
2016-Sep-23 22:00N 27°58' W 070°35'2 0.6 1013.7 30.0
2016-Sep-23 19:00N 27°59' W 070°33'1 0.7 1013.1 30.1
2016-Sep-23 18:00N 27°58' W 070°33'1 0.4 1013.8 30.1
2016-Sep-23 15:00N 27°59' W 070°33'0 0.2 1015.4 30.0
2016-Sep-23 14:00N 27°59' W 070°32'0 0.0 1015.2 29.9
2016-Sep-23 13:00N 27°59' W 070°32'1 0.8 1014.9 29.9
2016-Sep-23 12:00N 27°60' W 070°32'0 0.3 1014.7 29.9
2016-Sep-23 11:00N 27°60' W 070°32'3 0.7 1014.2 29.9
2016-Sep-23 07:00N 28°01' W 070°29'0 0.1 1013.6 30.0
2016-Sep-23 02:00N 28°01' W 070°29'1 1.2 1014.9 30.0
2016-Sep-23 01:00N 28°01' W 070°28'0 0.0 1015.1 30.0
2016-Sep-22 23:00N 28°01' W 070°28'1 0.6 1014.5 30.0
2016-Sep-22 22:00N 28°02' W 070°27'2 0.8 1014.5 30.1
2016-Sep-22 19:00N 28°01' W 070°24'2 0.3 1014.5 30.2
2016-Sep-22 12:00N 28°02' W 070°22'0 0.0 1016.2 29.9
2016-Sep-22 11:00N 28°02' W 070°22'2 0.8 1015.7 29.9
2016-Sep-22 08:00N 28°02' W 070°19'0 0.5 1014.9 29.9
2016-Sep-22 07:00N 28°01' W 070°19'0 0.1 1014.8 30.0
2016-Sep-22 02:00N 28°01' W 070°19'2 1.8 1016.8 30.0
2016-Sep-22 01:00N 28°01' W 070°17'0 0.3 1016.4 30.1
2016-Sep-22 00:00N 28°01' W 070°17'0 0.5 1016.2 30.2
2016-Sep-21 23:00N 28°00' W 070°17'0 0.2 1015.9 30.3
2016-Sep-21 22:00N 28°00' W 070°16'0 0.2 1015.6 30.4
2016-Sep-21 21:00N 28°00' W 070°16'1 0.5 1015.2 30.5
2016-Sep-21 19:00N 27°60' W 070°16'0 0.0 1015.4 30.5
2016-Sep-21 18:00N 27°60' W 070°16'1 0.4 1015.9 30.4
2016-Sep-21 15:00N 27°59' W 070°14'2 1.6 1017.2 30.1
2016-Sep-21 14:00N 27°59' W 070°13'0 0.1 1016.9 30.0
2016-Sep-21 13:00N 27°59' W 070°13'1 1.3 1016.7 30.0
2016-Sep-21 12:00N 27°57' W 070°12'0 0.3 1016.2 30.0
2016-Sep-21 11:00N 27°57' W 070°12'2 2.3 1015.7 30.0
2016-Sep-21 10:00N 27°56' W 070°10'2 0.2 1015.5 30.0
2016-Sep-21 02:00N 27°57' W 070°08'0 0.1 1016.9 30.1
2016-Sep-21 01:00N 27°57' W 070°08'0 0.4 1016.8 30.2
2016-Sep-21 00:00N 27°57' W 070°08'0 0.4 1016.3 30.2
2016-Sep-20 23:00N 27°57' W 070°07'1 0.2 1015.9 30.3
2016-Sep-20 20:00N 27°57' W 070°07'1 1.1 1015.7 30.5
2016-Sep-20 19:00N 27°56' W 070°08'1 0.6 1016.1 30.5
2016-Sep-20 18:00N 27°56' W 070°08'1 0.3 1016.4 30.4
2016-Sep-20 15:00N 27°56' W 070°07'0 0.2 1017.3 30.1
2016-Sep-20 14:00N 27°56' W 070°07'0 0.5 1017.2 30.0
2016-Sep-20 13:00N 27°55' W 070°07'1 0.9 1017.0 30.0
2016-Sep-20 12:00N 27°55' W 070°06'1 0.7 1016.7 30.0
2016-Sep-20 11:00N 27°54' W 070°06'1 0.5 1016.2 29.9
2016-Sep-20 08:00N 27°54' W 070°05'2 0.4 1015.5 30.0
2016-Sep-20 03:00N 27°54' W 070°02'0 0.2 1016.7 30.1
2016-Sep-20 02:00N 27°54' W 070°02'0 0.4 1016.8 30.2
2016-Sep-20 01:00N 27°54' W 070°02'1 0.8 1016.4 30.2
2016-Sep-20 00:00N 27°54' W 070°01'0 0.0 1016.2 30.3
2016-Sep-19 23:00N 27°54' W 070°01'2 0.3 1015.4 30.3
2016-Sep-19 15:00N 27°53' W 069°58'1 0.3 1016.9 30.2
2016-Sep-19 13:00N 27°53' W 069°58'1 0.5 1017.0 30.0
2016-Sep-19 12:00N 27°53' W 069°57'1 0.6 1016.6 29.9
2016-Sep-19 11:00N 27°53' W 069°56'4 3.9 1016.5 29.9
2016-Sep-19 10:00N 27°52' W 069°52'0 0.0 1015.7 29.9
2016-Sep-19 09:00N 27°52' W 069°52'0 0.0 1015.3 29.9
2016-Sep-19 02:00N 27°52' W 069°52'2 1.6 1016.7 30.0
2016-Sep-19 01:00N 27°53' W 069°50'0 0.0 1016.4 30.0
2016-Sep-18 23:00N 27°53' W 069°50'0 0.1 1015.5 30.0
2016-Sep-18 22:00N 27°53' W 069°50'1 1.1 1015.0 30.0
2016-Sep-18 21:00N 27°52' W 069°49'0 0.0 1015.3 30.1
2016-Sep-18 20:00N 27°52' W 069°49'1 0.6 1015.2 30.1
2016-Sep-18 19:00N 27°52' W 069°49'   1015.4 30.1
Track history (hours):
 
Tides and Currents Weather Stations Pressure Air Temp Water Temp Dewpoint Dewpoint Depression Visibility Wind Speed Wind Dir Waves Ship Positions

Drifting buoy 13519

Last reported at 2016-Sep-28 10:00 UTC. Time now 2016-Sep-28 12:01 UTC.
Position N 27°57' W 070°54'.

Barometer 1017.0 mb
Water temperature 29.7 ° C

Date/timePositionNaut miles runAvg speedWind from/ knotsBaromVisibWave heightAir tempDewpointWater temp
2016-Sep-28 10:00N 27°57' W 070°54'1 0.9 1017.0 29.7
2016-Sep-28 09:00N 27°56' W 070°53'0 0.4 1016.7 29.8
2016-Sep-28 08:00N 27°56' W 070°53'0 0.1 1015.9 29.7
2016-Sep-28 03:00N 27°56' W 070°53'0 0.4 1017.4 29.8
2016-Sep-28 02:00N 27°56' W 070°53'0 0.3 1017.4 29.8
2016-Sep-28 01:00N 27°56' W 070°53'2 0.3 1017.1 -0.1
2016-Sep-27 20:00N 27°54' W 070°53'6 0.4 1013.9 29.8
2016-Sep-27 02:00N 27°50' W 070°48'1 1.1 1016.4 29.9
2016-Sep-27 01:00N 27°50' W 070°47'1 0.2 1016.0 29.9
2016-Sep-26 22:00N 27°50' W 070°46'1 0.7 1014.8 30.0
2016-Sep-26 21:00N 27°49' W 070°46'0 0.0 1014.4 30.1
2016-Sep-26 20:00N 27°49' W 070°46'4 0.2 1014.4 30.1
2016-Sep-25 20:00N 27°51' W 070°42'0 0.1 1014.5 30.5
2016-Sep-25 19:00N 27°51' W 070°42'1 0.2 1014.6 30.7
2016-Sep-25 13:00N 27°51' W 070°40'1 0.3 1016.4 29.9
2016-Sep-25 09:00N 27°52' W 070°40'1 0.1 1014.7 29.9
2016-Sep-25 00:00N 27°53' W 070°39'0 0.1 1016.0 34.1
2016-Sep-24 22:00N 27°53' W 070°39'4 0.4 1015.3 34.1
2016-Sep-24 13:00N 27°55' W 070°36'1 0.3 1016.2 29.9
2016-Sep-24 09:00N 27°56' W 070°37'1 0.5 1014.7 29.9
2016-Sep-24 07:00N 27°57' W 070°36'0 0.1 1014.6 29.9
2016-Sep-24 01:00N 27°57' W 070°36'1 0.6 1014.5 29.9
2016-Sep-24 00:00N 27°57' W 070°36'1 0.9 1014.2 29.9
2016-Sep-23 23:00N 27°57' W 070°35'1 1.2 1013.9 30.0
2016-Sep-23 22:00N 27°58' W 070°35'2 0.6 1013.7 30.0
2016-Sep-23 19:00N 27°59' W 070°33'1 0.7 1013.1 30.1
2016-Sep-23 18:00N 27°58' W 070°33'1 0.4 1013.8 30.1
2016-Sep-23 15:00N 27°59' W 070°33'0 0.2 1015.4 30.0
2016-Sep-23 14:00N 27°59' W 070°32'0 0.0 1015.2 29.9
2016-Sep-23 13:00N 27°59' W 070°32'1 0.8 1014.9 29.9
2016-Sep-23 12:00N 27°60' W 070°32'0 0.3 1014.7 29.9
2016-Sep-23 11:00N 27°60' W 070°32'3 0.7 1014.2 29.9
2016-Sep-23 07:00N 28°01' W 070°29'0 0.1 1013.6 30.0
2016-Sep-23 02:00N 28°01' W 070°29'1 1.2 1014.9 30.0
2016-Sep-23 01:00N 28°01' W 070°28'0 0.0 1015.1 30.0
2016-Sep-22 23:00N 28°01' W 070°28'1 0.6 1014.5 30.0
2016-Sep-22 22:00N 28°02' W 070°27'2 0.8 1014.5 30.1
2016-Sep-22 19:00N 28°01' W 070°24'2 0.3 1014.5 30.2
2016-Sep-22 12:00N 28°02' W 070°22'0 0.0 1016.2 29.9
2016-Sep-22 11:00N 28°02' W 070°22'2 0.8 1015.7 29.9
2016-Sep-22 08:00N 28°02' W 070°19'0 0.5 1014.9 29.9
2016-Sep-22 07:00N 28°01' W 070°19'0 0.1 1014.8 30.0
2016-Sep-22 02:00N 28°01' W 070°19'2 1.8 1016.8 30.0
2016-Sep-22 01:00N 28°01' W 070°17'0 0.3 1016.4 30.1
2016-Sep-22 00:00N 28°01' W 070°17'0 0.5 1016.2 30.2
2016-Sep-21 23:00N 28°00' W 070°17'0 0.2 1015.9 30.3
2016-Sep-21 22:00N 28°00' W 070°16'0 0.2 1015.6 30.4
2016-Sep-21 21:00N 28°00' W 070°16'1 0.5 1015.2 30.5
2016-Sep-21 19:00N 27°60' W 070°16'0 0.0 1015.4 30.5
2016-Sep-21 18:00N 27°60' W 070°16'1 0.4 1015.9 30.4
2016-Sep-21 15:00N 27°59' W 070°14'2 1.6 1017.2 30.1
2016-Sep-21 14:00N 27°59' W 070°13'0 0.1 1016.9 30.0
2016-Sep-21 13:00N 27°59' W 070°13'1 1.3 1016.7 30.0
2016-Sep-21 12:00N 27°57' W 070°12'0 0.3 1016.2 30.0
2016-Sep-21 11:00N 27°57' W 070°12'2 2.3 1015.7 30.0
2016-Sep-21 10:00N 27°56' W 070°10'2 0.2 1015.5 30.0
2016-Sep-21 02:00N 27°57' W 070°08'0 0.1 1016.9 30.1
2016-Sep-21 01:00N 27°57' W 070°08'0 0.4 1016.8 30.2
2016-Sep-21 00:00N 27°57' W 070°08'0 0.4 1016.3 30.2
2016-Sep-20 23:00N 27°57' W 070°07'1 0.2 1015.9 30.3
2016-Sep-20 20:00N 27°57' W 070°07'1 1.1 1015.7 30.5
2016-Sep-20 19:00N 27°56' W 070°08'1 0.6 1016.1 30.5
2016-Sep-20 18:00N 27°56' W 070°08'1 0.3 1016.4 30.4
2016-Sep-20 15:00N 27°56' W 070°07'0 0.2 1017.3 30.1
2016-Sep-20 14:00N 27°56' W 070°07'0 0.5 1017.2 30.0
2016-Sep-20 13:00N 27°55' W 070°07'1 0.9 1017.0 30.0
2016-Sep-20 12:00N 27°55' W 070°06'1 0.7 1016.7 30.0
2016-Sep-20 11:00N 27°54' W 070°06'1 0.5 1016.2 29.9
2016-Sep-20 08:00N 27°54' W 070°05'2 0.4 1015.5 30.0
2016-Sep-20 03:00N 27°54' W 070°02'0 0.2 1016.7 30.1
2016-Sep-20 02:00N 27°54' W 070°02'0 0.4 1016.8 30.2
2016-Sep-20 01:00N 27°54' W 070°02'1 0.8 1016.4 30.2
2016-Sep-20 00:00N 27°54' W 070°01'0 0.0 1016.2 30.3
2016-Sep-19 23:00N 27°54' W 070°01'2 0.3 1015.4 30.3
2016-Sep-19 15:00N 27°53' W 069°58'1 0.3 1016.9 30.2
2016-Sep-19 13:00N 27°53' W 069°58'1 0.5 1017.0 30.0
2016-Sep-19 12:00N 27°53' W 069°57'1 0.6 1016.6 29.9
2016-Sep-19 11:00N 27°53' W 069°56'4 3.9 1016.5 29.9
2016-Sep-19 10:00N 27°52' W 069°52'0 0.0 1015.7 29.9
2016-Sep-19 09:00N 27°52' W 069°52'0 0.0 1015.3 29.9
2016-Sep-19 02:00N 27°52' W 069°52'2 1.6 1016.7 30.0
2016-Sep-19 01:00N 27°53' W 069°50'0 0.0 1016.4 30.0
2016-Sep-18 23:00N 27°53' W 069°50'0 0.1 1015.5 30.0
2016-Sep-18 22:00N 27°53' W 069°50'1 1.1 1015.0 30.0
2016-Sep-18 21:00N 27°52' W 069°49'0 0.0 1015.3 30.1
2016-Sep-18 20:00N 27°52' W 069°49'1 0.6 1015.2 30.1
2016-Sep-18 19:00N 27°52' W 069°49'   1015.4 30.1

Dump ship's entire track history